createdAt,value
2017-09-02T00:00:54.945Z,1020.62
2017-09-02T00:02:03.797Z,1020.58
2017-09-02T00:03:12.800Z,1020.61
2017-09-02T00:04:21.651Z,1020.63
2017-09-02T00:05:30.503Z,1020.65
2017-09-02T00:06:39.688Z,1020.65
2017-09-02T00:07:48.538Z,1020.65
2017-09-02T00:08:57.442Z,1020.67
2017-09-02T00:10:06.293Z,1020.64
2017-09-02T00:11:15.147Z,1020.68
2017-09-02T00:12:24.002Z,1020.65
2017-09-02T00:13:32.859Z,1020.64
2017-09-02T00:14:42.053Z,1020.58
2017-09-02T00:15:50.906Z,1020.55
2017-09-02T00:16:59.765Z,1020.57
2017-09-02T00:18:08.619Z,1020.57
2017-09-02T00:19:17.472Z,1020.6
2017-09-02T00:20:26.324Z,1020.6
2017-09-02T00:21:35.508Z,1020.59
2017-09-02T00:22:44.359Z,1020.6
2017-09-02T00:23:53.210Z,1020.57
2017-09-02T00:25:02.062Z,1020.6
2017-09-02T00:26:11.013Z,1020.59
2017-09-02T00:27:19.864Z,1020.61
2017-09-02T00:28:28.721Z,1020.55
2017-09-02T00:29:37.903Z,1020.6
2017-09-02T00:30:46.755Z,1020.62
2017-09-02T00:31:55.708Z,1020.61
2017-09-02T00:33:04.918Z,1020.58
2017-09-02T00:34:13.752Z,1020.6
2017-09-02T00:35:22.604Z,1020.61
2017-09-02T00:36:31.451Z,1020.6
2017-09-02T00:37:40.302Z,1020.64
2017-09-02T00:38:49.154Z,1020.59
2017-09-02T00:39:58.007Z,1020.6
2017-09-02T00:41:06.861Z,1020.6
2017-09-02T00:42:15.713Z,1020.56
2017-09-02T00:43:24.764Z,1020.54
2017-09-02T00:44:33.615Z,1020.51
2017-09-02T00:45:42.464Z,1020.53
2017-09-02T00:46:51.313Z,1020.5
2017-09-02T00:48:00.163Z,1020.5
2017-09-02T00:49:09.313Z,1020.5
2017-09-02T00:50:18.162Z,1020.54
2017-09-02T00:51:27.014Z,1020.57
2017-09-02T00:52:35.863Z,1020.56
2017-09-02T00:53:44.715Z,1020.57
2017-09-02T00:54:53.718Z,1020.55
2017-09-02T00:56:02.576Z,1020.54
2017-09-02T00:57:11.426Z,1020.54
2017-09-02T00:58:20.277Z,1020.56
2017-09-02T00:59:29.126Z,1020.54
2017-09-02T01:00:38.027Z,1020.53
2017-09-02T01:01:46.876Z,1020.54
2017-09-02T01:02:55.727Z,1020.53
2017-09-02T01:04:04.911Z,1020.52
2017-09-02T01:05:14.095Z,1020.49
2017-09-02T01:06:23.248Z,1020.49
2017-09-02T01:07:32.434Z,1020.51
2017-09-02T01:08:41.287Z,1020.49
2017-09-02T01:09:50.138Z,1020.53
2017-09-02T01:10:58.991Z,1020.51
2017-09-02T01:12:07.941Z,1020.51
2017-09-02T01:13:16.793Z,1020.5
2017-09-02T01:14:25.976Z,1020.55
2017-09-02T01:15:34.827Z,1020.56
2017-09-02T01:16:43.677Z,1020.58
2017-09-02T01:17:52.529Z,1020.56
2017-09-02T01:19:01.383Z,1020.55
2017-09-02T01:20:10.232Z,1020.54
2017-09-02T01:21:19.082Z,1020.49
2017-09-02T01:22:27.934Z,1020.53
2017-09-02T01:23:36.887Z,1020.5
2017-09-02T01:24:45.738Z,1020.5
2017-09-02T01:25:54.592Z,1020.49
2017-09-02T01:27:03.440Z,1020.52
2017-09-02T01:28:12.290Z,1020.51
2017-09-02T01:29:21.289Z,1020.51
2017-09-02T01:30:30.138Z,1020.53
2017-09-02T01:31:38.991Z,1020.51
2017-09-02T01:32:47.843Z,1020.54
2017-09-02T01:33:56.698Z,1020.52
2017-09-02T01:35:05.599Z,1020.49
2017-09-02T01:36:14.449Z,1020.54
2017-09-02T01:37:23.300Z,1020.54
2017-09-02T01:38:32.152Z,1020.57
2017-09-02T01:39:41.002Z,1020.55
2017-09-02T01:40:50.003Z,1020.54
2017-09-02T01:41:58.851Z,1020.53
2017-09-02T01:43:07.701Z,1020.5
2017-09-02T01:44:16.552Z,1020.47
2017-09-02T01:45:25.734Z,1020.46
2017-09-02T01:46:34.681Z,1020.46
2017-09-02T01:47:43.532Z,1020.38
2017-09-02T01:48:52.382Z,1020.4
2017-09-02T01:50:01.231Z,1020.43
2017-09-02T01:51:10.081Z,1020.43
2017-09-02T01:52:19.083Z,1020.39
2017-09-02T01:53:27.931Z,1020.4
2017-09-02T01:54:36.782Z,1020.39
2017-09-02T01:55:45.633Z,1020.4
2017-09-02T01:56:54.821Z,1020.36
2017-09-02T01:58:03.671Z,1020.38
2017-09-02T01:59:12.517Z,1020.37
2017-09-02T02:00:21.367Z,1020.35
2017-09-02T02:01:30.214Z,1020.38
2017-09-02T02:02:39.065Z,1020.39
2017-09-02T02:03:47.966Z,1020.38
2017-09-02T02:04:56.814Z,1020.38
2017-09-02T02:06:05.663Z,1020.39
2017-09-02T02:07:14.515Z,1020.39
2017-09-02T02:08:23.368Z,1020.39
2017-09-02T02:09:32.268Z,1020.37
2017-09-02T02:10:41.451Z,1020.44
2017-09-02T02:11:50.300Z,1020.38
2017-09-02T02:12:59.150Z,1020.37
2017-09-02T02:14:08.000Z,1020.42
2017-09-02T02:15:17.152Z,1020.4
2017-09-02T02:16:26.005Z,1020.37
2017-09-02T02:17:35.194Z,1020.43
2017-09-02T02:18:44.044Z,1020.38
2017-09-02T02:19:52.896Z,1020.4
2017-09-02T02:21:01.799Z,1020.37
2017-09-02T02:22:10.650Z,1020.34
2017-09-02T02:23:19.499Z,1020.3
2017-09-02T02:24:28.349Z,1020.34
2017-09-02T02:25:37.199Z,1020.31
2017-09-02T02:26:46.049Z,1020.34
2017-09-02T02:27:54.949Z,1020.33
2017-09-02T02:29:03.796Z,1020.3
2017-09-02T02:30:12.979Z,1020.29
2017-09-02T02:31:21.832Z,1020.27
2017-09-02T02:32:30.733Z,1020.3
2017-09-02T02:33:39.582Z,1020.29
2017-09-02T02:34:48.432Z,1020.3
2017-09-02T02:35:57.283Z,1020.31
2017-09-02T02:37:06.133Z,1020.31
2017-09-02T02:38:15.031Z,1020.32
2017-09-02T02:39:23.877Z,1020.3
2017-09-02T02:40:32.728Z,1020.26
2017-09-02T02:41:41.574Z,1020.27
2017-09-02T02:42:50.419Z,1020.26
2017-09-02T02:43:59.412Z,1020.29
2017-09-02T02:45:08.251Z,1020.31
2017-09-02T02:46:17.094Z,1020.25
2017-09-02T02:47:25.939Z,1020.26
2017-09-02T02:48:34.783Z,1020.24
2017-09-02T02:49:43.927Z,1020.25
2017-09-02T02:50:52.771Z,1020.23
2017-09-02T02:52:01.619Z,1020.24
2017-09-02T02:53:10.796Z,1020.26
2017-09-02T02:54:19.640Z,1020.24
2017-09-02T02:55:28.536Z,1020.26
2017-09-02T02:56:37.382Z,1020.24
2017-09-02T02:57:46.227Z,1020.23
2017-09-02T02:58:55.071Z,1020.23
2017-09-02T03:00:03.916Z,1020.22
2017-09-02T03:01:12.760Z,1020.24
2017-09-02T03:02:21.601Z,1020.23
2017-09-02T03:03:30.777Z,1020.24
2017-09-02T03:04:39.619Z,1020.23
2017-09-02T03:05:48.462Z,1020.26
2017-09-02T03:06:57.507Z,1020.27
2017-09-02T03:08:06.350Z,1020.25
2017-09-02T03:09:15.194Z,1020.27
2017-09-02T03:10:24.041Z,1020.22
2017-09-02T03:11:33.218Z,1020.19
2017-09-02T03:12:42.311Z,1020.24
2017-09-02T03:13:51.156Z,1020.22
2017-09-02T03:15:00.001Z,1020.22
2017-09-02T03:16:08.843Z,1020.29
2017-09-02T03:17:17.688Z,1020.24
2017-09-02T03:18:26.583Z,1020.24
2017-09-02T03:19:35.428Z,1020.22
2017-09-02T03:20:44.272Z,1020.22
2017-09-02T03:21:53.114Z,1020.23
2017-09-02T03:23:01.956Z,1020.17
2017-09-02T03:24:11.099Z,1020.2
2017-09-02T03:25:20.276Z,1020.19
2017-09-02T03:26:29.120Z,1020.22
2017-09-02T03:27:37.963Z,1020.22
2017-09-02T03:28:46.808Z,1020.22
2017-09-02T03:29:55.952Z,1020.2
2017-09-02T03:31:04.794Z,1020.2
2017-09-02T03:32:13.638Z,1020.18
2017-09-02T03:33:22.483Z,1020.17
2017-09-02T03:34:31.325Z,1020.17
2017-09-02T03:35:40.569Z,1020.23
2017-09-02T03:36:49.412Z,1020.21
2017-09-02T03:37:58.258Z,1020.2
2017-09-02T03:39:07.436Z,1020.19
2017-09-02T03:40:16.282Z,1020.16
2017-09-02T03:41:25.226Z,1020.19
2017-09-02T03:42:34.067Z,1020.18
2017-09-02T03:43:42.910Z,1020.13
2017-09-02T03:44:51.754Z,1020.16
2017-09-02T03:46:00.600Z,1020.16
2017-09-02T03:47:09.453Z,1020.16
2017-09-02T03:48:18.286Z,1020.13
2017-09-02T03:49:27.129Z,1020.15
2017-09-02T03:50:35.970Z,1020.17
2017-09-02T03:51:44.813Z,1020.15
2017-09-02T03:52:53.806Z,1020.16
2017-09-02T03:54:02.650Z,1020.17
2017-09-02T03:55:11.493Z,1020.18
2017-09-02T03:56:20.339Z,1020.13
2017-09-02T03:57:29.182Z,1020.16
2017-09-02T03:58:38.509Z,1020.12
2017-09-02T03:59:47.353Z,1020.16
2017-09-02T04:00:56.195Z,1020.15
2017-09-02T04:02:05.037Z,1020.18
2017-09-02T04:03:13.881Z,1020.17
2017-09-02T04:04:22.874Z,1020.14
2017-09-02T04:05:31.717Z,1020.16
2017-09-02T04:06:40.561Z,1020.13
2017-09-02T04:07:49.404Z,1020.22
2017-09-02T04:08:58.249Z,1020.22
2017-09-02T04:10:07.291Z,1020.17
2017-09-02T04:11:16.135Z,1020.17
2017-09-02T04:12:24.977Z,1020.19
2017-09-02T04:13:33.818Z,1020.18
2017-09-02T04:14:42.668Z,1020.22
2017-09-02T04:15:51.614Z,1020.21
2017-09-02T04:17:00.786Z,1020.23
2017-09-02T04:18:09.629Z,1020.26
2017-09-02T04:19:18.800Z,1020.25
2017-09-02T04:20:27.638Z,1020.2
2017-09-02T04:21:36.579Z,1020.29
2017-09-02T04:22:45.420Z,1020.22
2017-09-02T04:23:54.261Z,1020.19
2017-09-02T04:25:03.101Z,1020.2
2017-09-02T04:26:11.943Z,1020.22
2017-09-02T04:27:20.932Z,1020.25
2017-09-02T04:28:29.774Z,1020.26
2017-09-02T04:29:38.617Z,1020.25
2017-09-02T04:30:47.459Z,1020.27
2017-09-02T04:31:56.302Z,1020.27
2017-09-02T04:33:05.294Z,1020.26
2017-09-02T04:34:14.136Z,1020.24
2017-09-02T04:35:22.974Z,1020.22
2017-09-02T04:36:31.838Z,1020.27
2017-09-02T04:37:41.021Z,1020.25
2017-09-02T04:38:49.864Z,1020.29
2017-09-02T04:39:58.706Z,1020.27
2017-09-02T04:41:07.546Z,1020.26
2017-09-02T04:42:16.386Z,1020.28
2017-09-02T04:43:25.225Z,1020.26
2017-09-02T04:44:34.166Z,1020.29
2017-09-02T04:45:43.008Z,1020.3
2017-09-02T04:46:51.848Z,1020.31
2017-09-02T04:48:00.689Z,1020.31
2017-09-02T04:49:09.529Z,1020.28
2017-09-02T04:50:18.521Z,1020.29
2017-09-02T04:51:27.693Z,1020.34
2017-09-02T04:52:36.540Z,1020.34
2017-09-02T04:53:45.382Z,1020.34
2017-09-02T04:54:54.225Z,1020.33
2017-09-02T04:56:03.365Z,1020.33
2017-09-02T04:57:12.209Z,1020.39
2017-09-02T04:58:21.049Z,1020.34
2017-09-02T04:59:29.894Z,1020.38
2017-09-02T05:00:38.733Z,1020.39
2017-09-02T05:01:47.576Z,1020.42
2017-09-02T05:02:56.421Z,1020.41
2017-09-02T05:04:05.268Z,1020.45
2017-09-02T05:05:14.112Z,1020.46
2017-09-02T05:06:22.957Z,1020.49
2017-09-02T05:07:31.802Z,1020.49
2017-09-02T05:08:40.644Z,1020.42
2017-09-02T05:09:49.488Z,1020.47
2017-09-02T05:10:58.332Z,1020.48
2017-09-02T05:12:07.505Z,1020.45
2017-09-02T05:13:16.547Z,1020.44
2017-09-02T05:14:25.391Z,1020.42
2017-09-02T05:15:34.234Z,1020.46
2017-09-02T05:16:43.079Z,1020.49
2017-09-02T05:17:51.923Z,1020.48
2017-09-02T05:19:00.915Z,1020.46
2017-09-02T05:20:09.758Z,1020.5
2017-09-02T05:21:18.604Z,1020.44
2017-09-02T05:22:27.448Z,1020.51
2017-09-02T05:23:36.296Z,1020.52
2017-09-02T05:24:45.292Z,1020.5
2017-09-02T05:25:54.141Z,1020.52
2017-09-02T05:27:02.981Z,1020.5
2017-09-02T05:28:11.826Z,1020.51
2017-09-02T05:29:20.671Z,1020.55
2017-09-02T05:30:29.514Z,1020.55
2017-09-02T05:31:38.359Z,1020.52
2017-09-02T05:32:47.204Z,1020.58
2017-09-02T05:33:56.048Z,1020.6
2017-09-02T05:35:04.890Z,1020.54
2017-09-02T05:36:13.786Z,1020.56
2017-09-02T05:37:22.630Z,1020.54
2017-09-02T05:38:31.474Z,1020.52
2017-09-02T05:39:40.320Z,1020.56
2017-09-02T05:40:49.164Z,1020.57
2017-09-02T05:41:58.055Z,1020.56
2017-09-02T05:43:06.898Z,1020.55
2017-09-02T05:44:15.741Z,1020.57
2017-09-02T05:45:24.914Z,1020.56
2017-09-02T05:46:34.093Z,1020.56
2017-09-02T05:47:42.989Z,1020.58
2017-09-02T05:48:52.163Z,1020.55
2017-09-02T05:50:01.005Z,1020.54
2017-09-02T05:51:09.849Z,1020.56
2017-09-02T05:52:18.691Z,1020.55
2017-09-02T05:53:27.682Z,1020.56
2017-09-02T05:54:36.524Z,1020.56
2017-09-02T05:55:45.366Z,1020.53
2017-09-02T05:56:54.205Z,1020.55
2017-09-02T05:58:03.049Z,1020.52
2017-09-02T05:59:12.276Z,1020.54
2017-09-02T06:00:21.122Z,1020.54
2017-09-02T06:01:30.298Z,1020.54
2017-09-02T06:02:39.140Z,1020.56
2017-09-02T06:03:47.983Z,1020.61
2017-09-02T06:04:56.974Z,1020.6
2017-09-02T06:06:06.149Z,1020.56
2017-09-02T06:07:15.000Z,1020.57
2017-09-02T06:08:23.844Z,1020.54
2017-09-02T06:09:32.683Z,1020.55
2017-09-02T06:10:41.578Z,1020.57
2017-09-02T06:11:50.418Z,1020.53
2017-09-02T06:12:59.260Z,1020.5
2017-09-02T06:14:08.102Z,1020.52
2017-09-02T06:15:16.946Z,1020.51
2017-09-02T06:16:26.175Z,1020.51
2017-09-02T06:17:35.017Z,1020.47
2017-09-02T06:18:44.194Z,1020.51
2017-09-02T06:19:53.034Z,1020.47
2017-09-02T06:21:02.210Z,1020.44
2017-09-02T06:22:11.206Z,1020.46
2017-09-02T06:23:20.051Z,1020.41
2017-09-02T06:24:28.894Z,1020.42
2017-09-02T06:25:37.736Z,1020.48
2017-09-02T06:26:46.578Z,1020.47
2017-09-02T06:27:55.721Z,1020.53
2017-09-02T06:29:04.569Z,1020.47
2017-09-02T06:30:13.405Z,1020.5
2017-09-02T06:31:22.249Z,1020.52
2017-09-02T06:32:31.092Z,1020.57
2017-09-02T06:33:39.937Z,1020.54
2017-09-02T06:34:48.779Z,1020.56
2017-09-02T06:35:57.618Z,1020.53
2017-09-02T06:37:06.461Z,1020.56
2017-09-02T06:38:15.377Z,1020.56
2017-09-02T06:39:24.342Z,1020.57
2017-09-02T06:40:33.507Z,1020.57
2017-09-02T06:41:42.506Z,1020.55
2017-09-02T06:42:51.399Z,1020.57
2017-09-02T06:44:00.497Z,1020.58
2017-09-02T06:45:09.606Z,1020.57
2017-09-02T06:46:18.535Z,1020.55
2017-09-02T06:47:27.647Z,1020.55
2017-09-02T06:48:36.542Z,1020.57
2017-09-02T06:49:45.389Z,1020.58
2017-09-02T06:50:54.585Z,1020.62
2017-09-02T06:52:03.429Z,1020.61
2017-09-02T06:53:12.280Z,1020.57
2017-09-02T06:54:21.455Z,1020.6
2017-09-02T06:55:30.301Z,1020.58
2017-09-02T06:56:39.146Z,1020.62
2017-09-02T06:57:47.992Z,1020.61
2017-09-02T06:58:56.834Z,1020.59
2017-09-02T07:00:05.679Z,1020.62
2017-09-02T07:01:14.524Z,1020.6
2017-09-02T07:02:23.368Z,1020.6
2017-09-02T07:03:32.217Z,1020.66
2017-09-02T07:04:41.066Z,1020.62
2017-09-02T07:05:49.909Z,1020.64
2017-09-02T07:06:59.086Z,1020.65
2017-09-02T07:08:07.929Z,1020.7
2017-09-02T07:09:16.774Z,1020.7
2017-09-02T07:10:25.618Z,1020.66
2017-09-02T07:11:34.616Z,1020.66
2017-09-02T07:12:43.462Z,1020.67
2017-09-02T07:13:52.307Z,1020.68
2017-09-02T07:15:01.153Z,1020.71
2017-09-02T07:16:10.006Z,1020.71
2017-09-02T07:17:18.850Z,1020.69
2017-09-02T07:18:27.701Z,1020.7
2017-09-02T07:19:36.549Z,1020.68
2017-09-02T07:20:45.397Z,1020.72
2017-09-02T07:21:54.391Z,1020.68
2017-09-02T07:23:03.238Z,1020.73
2017-09-02T07:24:12.086Z,1020.73
2017-09-02T07:25:20.934Z,1020.71
2017-09-02T07:26:29.781Z,1020.71
2017-09-02T07:27:38.628Z,1020.7
2017-09-02T07:28:47.474Z,1020.73
2017-09-02T07:29:56.318Z,1020.71
2017-09-02T07:31:05.165Z,1020.74
2017-09-02T07:32:14.020Z,1020.7
2017-09-02T07:33:23.025Z,1020.72
2017-09-02T07:34:31.882Z,1020.69
2017-09-02T07:35:40.742Z,1020.74
2017-09-02T07:36:49.600Z,1020.71
2017-09-02T07:37:58.458Z,1020.69
2017-09-02T07:39:07.465Z,1020.69
2017-09-02T07:40:16.319Z,1020.75
2017-09-02T07:41:25.175Z,1020.76
2017-09-02T07:42:34.031Z,1020.78
2017-09-02T07:43:42.895Z,1020.72
2017-09-02T07:44:51.903Z,1020.73
2017-09-02T07:46:00.759Z,1020.78
2017-09-02T07:47:09.620Z,1020.77
2017-09-02T07:48:18.476Z,1020.8
2017-09-02T07:49:27.337Z,1020.84
2017-09-02T07:50:36.242Z,1020.82
2017-09-02T07:51:45.097Z,1020.82
2017-09-02T07:52:53.954Z,1020.82
2017-09-02T07:54:02.818Z,1020.85
2017-09-02T07:55:11.712Z,1020.84
2017-09-02T07:56:20.624Z,1020.88
2017-09-02T07:57:29.483Z,1020.89
2017-09-02T07:58:38.340Z,1020.88
2017-09-02T07:59:47.248Z,1020.85
2017-09-02T08:00:56.110Z,1020.83
2017-09-02T08:02:05.013Z,1020.85
2017-09-02T08:03:13.856Z,1020.83
2017-09-02T08:04:22.711Z,1020.84
2017-09-02T08:05:32.222Z,1020.9
2017-09-02T08:06:41.069Z,1020.87
2017-09-02T08:07:49.915Z,1020.87
2017-09-02T08:08:58.759Z,1020.84
2017-09-02T08:10:07.605Z,1020.83
2017-09-02T08:11:16.451Z,1020.86
2017-09-02T08:12:25.296Z,1020.85
2017-09-02T08:13:34.527Z,1020.84
2017-09-02T08:14:43.706Z,1020.8
2017-09-02T08:15:52.554Z,1020.8
2017-09-02T08:17:01.405Z,1020.79
2017-09-02T08:18:10.585Z,1020.77
2017-09-02T08:19:19.580Z,1020.78
2017-09-02T08:20:28.759Z,1020.83
2017-09-02T08:21:37.607Z,1020.8
2017-09-02T08:22:46.463Z,1020.8
2017-09-02T08:23:55.415Z,1020.8
2017-09-02T08:25:04.312Z,1020.77
2017-09-02T08:26:13.158Z,1020.84
2017-09-02T08:27:22.004Z,1020.82
2017-09-02T08:28:30.849Z,1020.79
2017-09-02T08:29:39.694Z,1020.81
2017-09-02T08:30:49.269Z,1020.82
2017-09-02T08:31:58.120Z,1020.85
2017-09-02T08:33:06.966Z,1020.79
2017-09-02T08:34:15.812Z,1020.82
2017-09-02T08:35:24.658Z,1020.81
2017-09-02T08:36:33.554Z,1020.79
2017-09-02T08:37:42.402Z,1020.78
2017-09-02T08:38:51.247Z,1020.83
2017-09-02T08:40:00.100Z,1020.85
2017-09-02T08:41:08.948Z,1020.85
2017-09-02T08:42:17.845Z,1020.84
2017-09-02T08:43:26.692Z,1020.87
2017-09-02T08:44:35.537Z,1020.81
2017-09-02T08:45:44.481Z,1020.81
2017-09-02T08:46:53.656Z,1020.83
2017-09-02T08:48:02.754Z,1020.81
2017-09-02T08:49:11.928Z,1020.86
2017-09-02T08:50:20.772Z,1020.83
2017-09-02T08:51:29.618Z,1020.86
2017-09-02T08:52:38.463Z,1020.82
2017-09-02T08:53:47.309Z,1020.81
2017-09-02T08:54:56.154Z,1020.84
2017-09-02T08:56:05.004Z,1020.88
2017-09-02T08:57:13.853Z,1020.8
2017-09-02T08:58:22.693Z,1020.84
2017-09-02T08:59:31.690Z,1020.92
2017-09-02T09:00:40.538Z,1020.87
2017-09-02T09:01:49.385Z,1020.85
2017-09-02T09:02:58.234Z,1020.91
2017-09-02T09:04:07.080Z,1020.87
2017-09-02T09:05:16.228Z,1020.86
2017-09-02T09:06:25.072Z,1020.85
2017-09-02T09:07:33.921Z,1020.86
2017-09-02T09:08:42.770Z,1020.91
2017-09-02T09:09:51.619Z,1020.85
2017-09-02T09:11:00.468Z,1020.86
2017-09-02T09:12:09.318Z,1020.83
2017-09-02T09:13:18.166Z,1020.88
2017-09-02T09:14:27.017Z,1020.85
2017-09-02T09:15:36.198Z,1020.84
2017-09-02T09:16:45.630Z,1020.87
2017-09-02T09:17:54.478Z,1020.84
2017-09-02T09:19:03.659Z,1020.88
2017-09-02T09:20:12.507Z,1020.88
2017-09-02T09:21:21.729Z,1020.87
2017-09-02T09:22:31.082Z,1020.9
2017-09-02T09:23:39.907Z,1020.83
2017-09-02T09:24:48.751Z,1020.86
2017-09-02T09:25:57.600Z,1020.89
2017-09-02T09:27:06.451Z,1020.9
2017-09-02T09:28:15.828Z,1020.9
2017-09-02T09:29:24.676Z,1020.89
2017-09-02T09:30:33.525Z,1020.88
2017-09-02T09:31:42.372Z,1020.88
2017-09-02T09:32:51.221Z,1020.88
2017-09-02T09:34:00.452Z,1020.89
2017-09-02T09:35:09.634Z,1020.85
2017-09-02T09:36:18.484Z,1020.83
2017-09-02T09:37:27.331Z,1020.82
2017-09-02T09:38:36.180Z,1020.86
2017-09-02T09:39:45.204Z,1020.83
2017-09-02T09:40:54.062Z,1020.85
2017-09-02T09:42:02.918Z,1020.83
2017-09-02T09:43:11.767Z,1020.86
2017-09-02T09:44:20.618Z,1020.86
2017-09-02T09:45:29.617Z,1020.85
2017-09-02T09:46:38.468Z,1020.84
2017-09-02T09:47:47.321Z,1020.79
2017-09-02T09:48:56.169Z,1020.82
2017-09-02T09:50:05.015Z,1020.79
2017-09-02T09:51:13.911Z,1020.79
2017-09-02T09:52:22.760Z,1020.77
2017-09-02T09:53:31.605Z,1020.74
2017-09-02T09:54:40.455Z,1020.72
2017-09-02T09:55:49.302Z,1020.71
2017-09-02T09:56:58.453Z,1020.76
2017-09-02T09:58:07.300Z,1020.78
2017-09-02T09:59:16.153Z,1020.75
2017-09-02T10:00:25.332Z,1020.79
2017-09-02T10:01:34.180Z,1020.82
2017-09-02T10:02:43.030Z,1020.8
2017-09-02T10:03:51.878Z,1020.78
2017-09-02T10:05:00.724Z,1020.81
2017-09-02T10:06:09.574Z,1020.78
2017-09-02T10:07:18.421Z,1020.75
2017-09-02T10:08:27.267Z,1020.75
2017-09-02T10:09:36.115Z,1020.76
2017-09-02T10:10:44.960Z,1020.76
2017-09-02T10:11:53.810Z,1020.76
2017-09-02T10:13:02.657Z,1020.71
2017-09-02T10:14:11.556Z,1020.72
2017-09-02T10:15:20.405Z,1020.69
2017-09-02T10:16:29.287Z,1020.69
2017-09-02T10:17:38.149Z,1020.66
2017-09-02T10:18:46.996Z,1020.69
2017-09-02T10:19:55.844Z,1020.71
2017-09-02T10:21:05.030Z,1020.63
2017-09-02T10:22:13.878Z,1020.64
2017-09-02T10:23:22.824Z,1020.63
2017-09-02T10:24:31.681Z,1020.62
2017-09-02T10:25:40.680Z,1020.61
2017-09-02T10:26:49.531Z,1020.62
2017-09-02T10:27:58.379Z,1020.63
2017-09-02T10:29:07.227Z,1020.62
2017-09-02T10:30:16.076Z,1020.63
2017-09-02T10:31:25.023Z,1020.65
2017-09-02T10:32:33.869Z,1020.61
2017-09-02T10:33:42.717Z,1020.58
2017-09-02T10:34:51.583Z,1020.61
2017-09-02T10:36:00.431Z,1020.62
2017-09-02T10:37:09.527Z,1020.64
2017-09-02T10:38:18.376Z,1020.58
2017-09-02T10:39:27.222Z,1020.65
2017-09-02T10:40:36.743Z,1020.66
2017-09-02T10:41:45.590Z,1020.66
2017-09-02T10:42:54.690Z,1020.66
2017-09-02T10:44:03.539Z,1020.64
2017-09-02T10:45:12.387Z,1020.55
2017-09-02T10:46:21.235Z,1020.54
2017-09-02T10:47:30.085Z,1020.54
2017-09-02T10:48:39.083Z,1020.52
2017-09-02T10:49:47.931Z,1020.57
2017-09-02T10:50:56.782Z,1020.51
2017-09-02T10:52:05.631Z,1020.59
2017-09-02T10:53:14.482Z,1020.63
2017-09-02T10:54:23.580Z,1020.7
2017-09-02T10:55:32.431Z,1020.69
2017-09-02T10:56:41.286Z,1020.69
2017-09-02T10:57:50.126Z,1020.73
2017-09-02T10:58:58.972Z,1020.69
2017-09-02T11:00:07.972Z,1020.74
2017-09-02T11:01:17.156Z,1020.74
2017-09-02T11:02:26.002Z,1020.72
2017-09-02T11:03:34.850Z,1020.74
2017-09-02T11:04:43.698Z,1020.76
2017-09-02T11:05:52.547Z,1020.75
2017-09-02T11:07:01.396Z,1020.74
2017-09-02T11:08:10.242Z,1020.74
2017-09-02T11:09:19.089Z,1020.72
2017-09-02T11:10:28.269Z,1020.71
2017-09-02T11:11:37.268Z,1020.68
2017-09-02T11:12:46.114Z,1020.64
2017-09-02T11:13:54.961Z,1020.64
2017-09-02T11:15:03.807Z,1020.65
2017-09-02T11:16:12.684Z,1020.62
2017-09-02T11:17:21.749Z,1020.65
2017-09-02T11:18:30.594Z,1020.64
2017-09-02T11:19:39.439Z,1020.66
2017-09-02T11:20:48.286Z,1020.62
2017-09-02T11:21:57.134Z,1020.63
2017-09-02T11:23:06.030Z,1020.62
2017-09-02T11:24:14.877Z,1020.64
2017-09-02T11:25:23.722Z,1020.6
2017-09-02T11:26:32.568Z,1020.59
2017-09-02T11:27:41.765Z,1020.59
2017-09-02T11:28:50.644Z,1020.56
2017-09-02T11:29:59.491Z,1020.53
2017-09-02T11:31:08.336Z,1020.54
2017-09-02T11:32:17.210Z,1020.52
2017-09-02T11:33:26.391Z,1020.53
2017-09-02T11:34:35.540Z,1020.53
2017-09-02T11:35:44.385Z,1020.56
2017-09-02T11:36:53.229Z,1020.54
2017-09-02T11:38:02.177Z,1020.51
2017-09-02T11:39:11.022Z,1020.5
2017-09-02T11:40:20.174Z,1020.56
2017-09-02T11:41:29.350Z,1020.51
2017-09-02T11:42:38.194Z,1020.47
2017-09-02T11:43:47.040Z,1020.49
2017-09-02T11:44:55.987Z,1020.43
2017-09-02T11:46:04.883Z,1020.5
2017-09-02T11:47:13.729Z,1020.51
2017-09-02T11:48:22.576Z,1020.49
2017-09-02T11:49:31.423Z,1020.47
2017-09-02T11:50:40.273Z,1020.49
2017-09-02T11:51:49.656Z,1020.42
2017-09-02T11:52:58.501Z,1020.46
2017-09-02T11:54:07.344Z,1020.42
2017-09-02T11:55:16.191Z,1020.41
2017-09-02T11:56:25.037Z,1020.44
2017-09-02T11:57:34.182Z,1020.46
2017-09-02T11:58:43.030Z,1020.44
2017-09-02T11:59:51.877Z,1020.5
2017-09-02T12:01:00.723Z,1020.48
2017-09-02T12:02:09.571Z,1020.49
2017-09-02T12:03:18.567Z,1020.47
2017-09-02T12:04:27.772Z,1020.5
2017-09-02T12:05:36.616Z,1020.51
2017-09-02T12:06:45.800Z,1020.48
2017-09-02T12:07:54.647Z,1020.49
2017-09-02T12:09:03.646Z,1020.52
2017-09-02T12:10:12.492Z,1020.51
2017-09-02T12:11:21.341Z,1020.53
2017-09-02T12:12:30.189Z,1020.52
2017-09-02T12:13:39.372Z,1020.53
2017-09-02T12:14:48.270Z,1020.59
2017-09-02T12:15:57.450Z,1020.54
2017-09-02T12:17:06.320Z,1020.55
2017-09-02T12:18:15.501Z,1020.56
2017-09-02T12:19:24.350Z,1020.54
2017-09-02T12:20:33.357Z,1020.52
2017-09-02T12:21:42.204Z,1020.54
2017-09-02T12:22:51.060Z,1020.54
2017-09-02T12:23:59.907Z,1020.51
2017-09-02T12:25:08.793Z,1020.51
2017-09-02T12:26:17.944Z,1020.5
2017-09-02T12:27:26.797Z,1020.45
2017-09-02T12:28:36.018Z,1020.44
2017-09-02T12:29:44.871Z,1020.46
2017-09-02T12:30:53.722Z,1020.46
2017-09-02T12:32:02.623Z,1020.41
2017-09-02T12:33:11.473Z,1020.39
2017-09-02T12:34:20.665Z,1020.38
2017-09-02T12:35:29.514Z,1020.37
2017-09-02T12:36:38.365Z,1020.41
2017-09-02T12:37:47.516Z,1020.36
2017-09-02T12:38:56.366Z,1020.4
2017-09-02T12:40:05.219Z,1020.36
2017-09-02T12:41:14.070Z,1020.34
2017-09-02T12:42:22.921Z,1020.34
2017-09-02T12:43:32.103Z,1020.36
2017-09-02T12:44:40.953Z,1020.38
2017-09-02T12:45:49.796Z,1020.34
2017-09-02T12:46:58.647Z,1020.32
2017-09-02T12:48:07.497Z,1020.36
2017-09-02T12:49:16.598Z,1020.35
2017-09-02T12:50:25.499Z,1020.38
2017-09-02T12:51:34.350Z,1020.4
2017-09-02T12:52:43.197Z,1020.43
2017-09-02T12:53:52.045Z,1020.36
2017-09-02T12:55:01.043Z,1020.39
2017-09-02T12:56:09.893Z,1020.46
2017-09-02T12:57:18.741Z,1020.38
2017-09-02T12:58:27.592Z,1020.39
2017-09-02T12:59:36.442Z,1020.38
2017-09-02T13:00:45.633Z,1020.43
2017-09-02T13:01:55.263Z,1020.4
2017-09-02T13:03:04.120Z,1020.4
2017-09-02T13:04:12.971Z,1020.39
2017-09-02T13:05:21.822Z,1020.39
2017-09-02T13:06:30.669Z,1020.41
2017-09-02T13:07:39.519Z,1020.37
2017-09-02T13:08:48.385Z,1020.38
2017-09-02T13:09:57.235Z,1020.37
2017-09-02T13:11:06.086Z,1020.35
2017-09-02T13:12:14.938Z,1020.36
2017-09-02T13:13:23.788Z,1020.36
2017-09-02T13:14:32.633Z,1020.35
2017-09-02T13:15:41.483Z,1020.36
2017-09-02T13:16:50.384Z,1020.34
2017-09-02T13:17:59.256Z,1020.28
2017-09-02T13:19:08.096Z,1020.27
2017-09-02T13:20:16.945Z,1020.3
2017-09-02T13:21:25.797Z,1020.25
2017-09-02T13:22:34.978Z,1020.26
2017-09-02T13:23:43.824Z,1020.26
2017-09-02T13:24:52.673Z,1020.24
2017-09-02T13:26:01.854Z,1020.28
2017-09-02T13:27:10.702Z,1020.27
2017-09-02T13:28:19.553Z,1020.28
2017-09-02T13:29:28.402Z,1020.3
2017-09-02T13:30:37.250Z,1020.26
2017-09-02T13:31:46.102Z,1020.28
2017-09-02T13:32:54.949Z,1020.25
2017-09-02T13:34:03.798Z,1020.24
2017-09-02T13:35:12.652Z,1020.26
2017-09-02T13:36:21.825Z,1020.23
2017-09-02T13:37:30.824Z,1020.19
2017-09-02T13:38:39.671Z,1020.21
2017-09-02T13:39:48.521Z,1020.21
2017-09-02T13:40:57.371Z,1020.2
2017-09-02T13:42:06.220Z,1020.16
2017-09-02T13:43:15.104Z,1020.21
2017-09-02T13:44:23.957Z,1020.18
2017-09-02T13:45:32.807Z,1020.14
2017-09-02T13:46:41.995Z,1020.16
2017-09-02T13:47:50.900Z,1020.2
2017-09-02T13:48:59.751Z,1020.21
2017-09-02T13:50:08.600Z,1020.24
2017-09-02T13:51:17.449Z,1020.4
2017-09-02T13:52:26.299Z,1020.38
2017-09-02T13:53:35.201Z,1020.57
2017-09-02T13:54:44.054Z,1020.47
2017-09-02T13:55:52.907Z,1020.44
2017-09-02T13:57:01.754Z,1020.27